createdAt,value
2022-12-20T00:00:58.563Z,20.25
2022-12-20T00:03:25.769Z,13.93
2022-12-20T00:05:52.889Z,23.15
2022-12-20T00:08:20.228Z,22.58
2022-12-20T00:10:47.408Z,20.23
2022-12-20T00:13:14.599Z,25.52
2022-12-20T00:15:41.807Z,26.42
2022-12-20T00:18:09.233Z,25.52
2022-12-20T00:20:36.509Z,31.13
2022-12-20T00:23:04.140Z,22.65
2022-12-20T00:25:31.398Z,23.95
2022-12-20T00:27:58.868Z,23.77
2022-12-20T00:30:25.997Z,18.42
2022-12-20T00:32:53.215Z,14.80
2022-12-20T00:35:21.525Z,18.92
2022-12-20T00:37:48.668Z,21.33
2022-12-20T00:40:15.885Z,25.70
2022-12-20T00:42:43.020Z,19.00
2022-12-20T00:45:12.772Z,16.80
2022-12-20T00:47:39.909Z,26.45
2022-12-20T00:50:07.411Z,20.42
2022-12-20T00:52:34.586Z,22.00
2022-12-20T00:55:01.899Z,25.90
2022-12-20T00:57:29.106Z,23.17
2022-12-20T00:59:56.286Z,17.33
2022-12-20T01:02:23.573Z,15.68
2022-12-20T01:04:50.959Z,15.98
2022-12-20T01:07:18.243Z,28.77
2022-12-20T01:09:45.451Z,18.92
2022-12-20T01:12:12.587Z,20.60
2022-12-20T01:14:39.801Z,26.58
2022-12-20T01:17:07.112Z,24.10
2022-12-20T01:19:34.282Z,23.77
2022-12-20T01:22:01.986Z,23.63
2022-12-20T01:24:29.244Z,17.45
2022-12-20T01:26:56.602Z,22.88
2022-12-20T01:29:23.751Z,22.58
2022-12-20T01:31:51.060Z,16.92
2022-12-20T01:34:18.270Z,17.23
2022-12-20T01:36:45.424Z,10.68
2022-12-20T01:39:14.978Z,11.93
2022-12-20T01:41:42.847Z,26.30
2022-12-20T01:44:17.063Z,30.45
2022-12-20T01:46:45.277Z,26.77
2022-12-20T01:49:12.446Z,18.90
2022-12-20T01:51:50.826Z,14.65
2022-12-20T01:54:20.304Z,16.00
2022-12-20T01:56:50.134Z,23.92
2022-12-20T01:59:17.525Z,13.35
2022-12-20T02:01:45.356Z,20.67
2022-12-20T02:04:12.682Z,17.65
2022-12-20T02:06:39.940Z,15.60
2022-12-20T02:09:08.837Z,19.52
2022-12-20T02:11:45.933Z,21.90
2022-12-20T02:14:31.674Z,11.57
2022-12-20T02:17:01.904Z,8.50
2022-12-20T02:19:40.678Z,16.63
2022-12-20T02:22:27.953Z,14.35
2022-12-20T02:25:03.372Z,21.33
2022-12-20T02:27:30.493Z,15.00
2022-12-20T02:30:08.311Z,16.42
2022-12-20T02:32:41.310Z,17.83
2022-12-20T02:35:09.709Z,19.00
2022-12-20T02:37:36.965Z,25.60
2022-12-20T02:40:05.250Z,26.42
2022-12-20T02:42:34.461Z,19.70
2022-12-20T02:45:15.488Z,18.65
2022-12-20T02:48:00.467Z,23.95
2022-12-20T02:50:29.226Z,16.20
2022-12-20T02:52:57.141Z,18.88
2022-12-20T02:55:30.992Z,18.48
2022-12-20T02:58:03.600Z,26.67
2022-12-20T03:00:34.818Z,22.85
2022-12-20T03:03:21.235Z,17.23
2022-12-20T03:05:49.495Z,10.15
2022-12-20T03:08:16.854Z,24.52
2022-12-20T03:10:44.109Z,20.00
2022-12-20T03:13:11.335Z,27.98
2022-12-20T03:15:38.541Z,17.63
2022-12-20T03:18:06.802Z,25.88
2022-12-20T03:20:34.070Z,17.40
2022-12-20T03:23:01.262Z,17.85
2022-12-20T03:25:28.918Z,27.73
2022-12-20T03:27:56.082Z,13.15
2022-12-20T03:30:23.260Z,26.35
2022-12-20T03:32:50.428Z,29.67
2022-12-20T03:35:17.733Z,10.05
2022-12-20T03:37:44.894Z,22.02
2022-12-20T03:40:12.413Z,22.83
2022-12-20T03:42:39.562Z,21.35
2022-12-20T03:45:07.058Z,17.20
2022-12-20T03:47:34.249Z,20.88
2022-12-20T03:50:01.517Z,24.17
2022-12-20T03:52:28.679Z,18.73
2022-12-20T03:54:55.909Z,19.58
2022-12-20T03:57:23.122Z,18.67
2022-12-20T03:59:52.726Z,27.17
2022-12-20T04:02:20.104Z,17.50
2022-12-20T04:04:47.860Z,24.23
2022-12-20T04:07:15.010Z,11.02
2022-12-20T04:09:42.141Z,15.35
2022-12-20T04:12:09.284Z,19.63
2022-12-20T04:14:37.404Z,18.80
2022-12-20T04:17:04.807Z,16.38
2022-12-20T04:19:32.119Z,19.75
2022-12-20T04:22:05.117Z,18.80
2022-12-20T04:24:33.404Z,10.93
2022-12-20T04:27:00.553Z,14.80
2022-12-20T04:29:27.966Z,13.90
2022-12-20T04:31:55.318Z,14.50
2022-12-20T04:34:22.570Z,17.73
2022-12-20T04:36:49.763Z,15.75
2022-12-20T04:39:16.915Z,17.77
2022-12-20T04:41:44.051Z,22.05
2022-12-20T04:44:11.229Z,22.80
2022-12-20T04:46:38.701Z,19.90
2022-12-20T04:49:05.963Z,20.52
2022-12-20T04:51:33.091Z,21.42
2022-12-20T04:54:00.316Z,20.63
2022-12-20T04:56:29.191Z,16.00
2022-12-20T04:58:57.863Z,17.45
2022-12-20T05:01:25.432Z,19.77
2022-12-20T05:03:52.953Z,22.85
2022-12-20T05:06:20.211Z,11.93
2022-12-20T05:08:47.495Z,22.85
2022-12-20T05:11:14.911Z,19.42
2022-12-20T05:13:42.197Z,17.05
2022-12-20T05:16:09.539Z,21.40
2022-12-20T05:18:36.840Z,20.65
2022-12-20T05:21:23.559Z,14.93
2022-12-20T05:24:09.653Z,13.90
2022-12-20T05:26:38.205Z,23.42
2022-12-20T05:29:06.216Z,13.85
2022-12-20T05:31:33.689Z,11.73
2022-12-20T05:34:01.078Z,16.45
2022-12-20T05:36:28.302Z,11.05
2022-12-20T05:39:01.776Z,19.58
2022-12-20T05:41:31.096Z,15.73
2022-12-20T05:43:58.515Z,17.52
2022-12-20T05:46:25.814Z,16.58
2022-12-20T05:48:53.019Z,15.75
2022-12-20T05:51:20.199Z,10.20
2022-12-20T05:53:47.530Z,20.33
2022-12-20T05:56:14.694Z,14.52
2022-12-20T05:58:41.856Z,20.98
2022-12-20T06:01:10.430Z,15.00
2022-12-20T06:03:38.554Z,16.98
2022-12-20T06:06:10.190Z,18.60
2022-12-20T06:08:40.960Z,18.35
2022-12-20T06:11:08.107Z,11.82
2022-12-20T06:13:35.316Z,17.55
2022-12-20T06:16:02.547Z,18.05
2022-12-20T06:18:29.690Z,21.80
2022-12-20T06:20:56.907Z,15.10
2022-12-20T06:23:24.126Z,20.25
2022-12-20T06:25:51.379Z,20.80
2022-12-20T06:28:21.944Z,15.57
2022-12-20T06:30:55.783Z,12.48
2022-12-20T06:33:22.921Z,26.48
2022-12-20T06:35:50.457Z,17.02
2022-12-20T06:38:18.086Z,15.90
2022-12-20T06:40:45.235Z,16.73
2022-12-20T06:43:12.421Z,15.85
2022-12-20T06:45:42.061Z,21.73
2022-12-20T06:48:09.980Z,22.27
2022-12-20T06:50:37.905Z,23.85
2022-12-20T06:53:05.079Z,24.30
2022-12-20T06:55:32.361Z,21.80
2022-12-20T06:57:59.566Z,16.45
2022-12-20T07:00:27.451Z,29.90
2022-12-20T07:02:54.875Z,23.48
2022-12-20T07:05:22.435Z,15.70
2022-12-20T07:07:50.071Z,26.85
2022-12-20T07:10:17.488Z,18.17
2022-12-20T07:12:48.057Z,19.90
2022-12-20T07:15:15.792Z,23.92
2022-12-20T07:17:42.967Z,36.35
2022-12-20T07:20:14.051Z,26.42
2022-12-20T07:22:41.780Z,33.67
2022-12-20T07:25:09.436Z,32.22
2022-12-20T07:27:36.843Z,16.77
2022-12-20T07:30:05.145Z,18.45
2022-12-20T07:32:32.380Z,16.58
2022-12-20T07:34:59.662Z,17.52
2022-12-20T07:37:26.790Z,26.75
2022-12-20T07:39:53.939Z,14.45
2022-12-20T07:42:21.167Z,20.20
2022-12-20T07:44:48.363Z,35.75
2022-12-20T07:47:15.581Z,34.28
2022-12-20T07:49:42.767Z,26.58
2022-12-20T07:52:10.718Z,23.73
2022-12-20T07:54:41.804Z,21.90
2022-12-20T07:57:12.989Z,24.05
2022-12-20T07:59:41.891Z,33.85
2022-12-20T08:02:10.856Z,27.75
2022-12-20T08:04:38.577Z,23.75
2022-12-20T08:07:05.982Z,32.88
2022-12-20T08:09:36.314Z,33.88
2022-12-20T08:12:03.648Z,20.73
2022-12-20T08:14:31.122Z,24.17
2022-12-20T08:16:58.328Z,17.52
2022-12-20T08:19:31.991Z,20.98
2022-12-20T08:21:59.865Z,22.55
2022-12-20T08:24:27.115Z,23.08
2022-12-20T08:26:54.260Z,23.92
2022-12-20T08:29:21.483Z,14.32
2022-12-20T08:31:50.671Z,22.40
2022-12-20T08:34:18.523Z,24.65
2022-12-20T08:36:45.742Z,22.80
2022-12-20T08:39:12.940Z,21.20
2022-12-20T08:41:40.098Z,22.13
2022-12-20T08:44:07.329Z,20.77
2022-12-20T08:46:34.595Z,27.02
2022-12-20T08:49:01.857Z,25.35
2022-12-20T08:51:29.428Z,20.63
2022-12-20T08:53:56.698Z,25.33
2022-12-20T08:56:23.873Z,17.73
2022-12-20T08:58:51.050Z,22.40
2022-12-20T09:01:19.459Z,11.68
2022-12-20T09:03:47.240Z,23.27
2022-12-20T09:06:19.760Z,9.85
2022-12-20T09:08:47.441Z,19.63
2022-12-20T09:11:15.915Z,13.38
2022-12-20T09:13:44.672Z,14.27
2022-12-20T09:16:13.793Z,12.00
2022-12-20T09:18:41.482Z,7.10
2022-12-20T09:21:09.579Z,12.48
2022-12-20T09:23:37.793Z,5.85
2022-12-20T09:26:06.296Z,12.45
2022-12-20T09:28:34.099Z,13.68
2022-12-20T09:31:02.166Z,10.60
2022-12-20T09:33:30.884Z,12.13
2022-12-20T09:35:58.784Z,9.45
2022-12-20T09:38:26.196Z,7.88
2022-12-20T09:40:55.519Z,27.05
2022-12-20T09:43:23.252Z,13.63
2022-12-20T09:45:53.486Z,15.52
2022-12-20T09:48:28.797Z,3.33
2022-12-20T09:51:02.028Z,15.88
2022-12-20T09:53:43.043Z,13.60
2022-12-20T09:56:12.993Z,16.08
2022-12-20T09:58:40.168Z,12.68
2022-12-20T10:01:25.608Z,14.73
2022-12-20T10:03:54.692Z,14.85
2022-12-20T10:06:40.408Z,13.27
2022-12-20T10:09:26.112Z,14.85
2022-12-20T10:11:54.387Z,11.80
2022-12-20T10:14:27.678Z,13.48
2022-12-20T10:16:57.771Z,13.07
2022-12-20T10:19:48.347Z,23.08
2022-12-20T10:22:23.866Z,16.45
2022-12-20T10:24:59.928Z,12.32
2022-12-20T10:27:27.424Z,11.25
2022-12-20T10:29:54.613Z,7.45
2022-12-20T10:32:24.216Z,23.75
2022-12-20T10:35:00.154Z,12.50
2022-12-20T10:37:27.429Z,19.60
2022-12-20T10:39:54.657Z,13.55
2022-12-20T10:42:26.339Z,14.50
2022-12-20T10:44:53.841Z,12.23
2022-12-20T10:47:30.849Z,11.00
2022-12-20T10:50:09.039Z,11.85
2022-12-20T10:52:36.188Z,11.55
2022-12-20T10:55:03.549Z,14.25
2022-12-20T10:57:33.504Z,6.93
2022-12-20T11:00:02.521Z,9.82
2022-12-20T11:02:39.524Z,12.65
2022-12-20T11:05:10.730Z,15.85
2022-12-20T11:07:43.626Z,8.52
2022-12-20T11:10:28.185Z,13.05
2022-12-20T11:12:57.504Z,9.77
2022-12-20T11:15:33.599Z,9.77
2022-12-20T11:18:17.707Z,6.63
2022-12-20T11:20:48.016Z,11.50
2022-12-20T11:23:15.196Z,14.60
2022-12-20T11:25:45.176Z,9.45
2022-12-20T11:28:29.524Z,5.25
2022-12-20T11:30:59.496Z,8.73
2022-12-20T11:33:26.728Z,10.60
2022-12-20T11:36:03.445Z,10.10
2022-12-20T11:38:36.351Z,12.95
2022-12-20T11:41:11.166Z,5.75
2022-12-20T11:44:15.744Z,19.40
2022-12-20T11:46:47.313Z,9.05
2022-12-20T11:49:14.485Z,13.38
2022-12-20T11:51:58.452Z,8.27
2022-12-20T11:54:35.093Z,17.30
2022-12-20T11:57:10.665Z,10.82
2022-12-20T11:59:42.622Z,17.98
2022-12-20T12:02:14.411Z,16.80
2022-12-20T12:04:47.235Z,12.55
2022-12-20T12:09:53.514Z,12.60
2022-12-20T12:12:33.573Z,14.80
2022-12-20T12:15:03.551Z,10.02
2022-12-20T12:17:40.410Z,13.50
2022-12-20T12:20:23.163Z,12.80
2022-12-20T12:22:51.766Z,18.42
2022-12-20T12:25:19.213Z,19.50
2022-12-20T12:27:46.460Z,13.27
2022-12-20T12:30:17.337Z,11.80
2022-12-20T12:32:45.272Z,21.65
2022-12-20T12:35:24.522Z,7.70
2022-12-20T12:38:12.739Z,15.55
2022-12-20T12:40:52.119Z,12.13
2022-12-20T12:43:38.415Z,15.73
2022-12-20T12:46:14.383Z,9.65
2022-12-20T12:49:03.178Z,8.05
2022-12-20T12:51:35.100Z,12.57
2022-12-20T12:54:17.212Z,8.27
2022-12-20T12:56:48.695Z,11.30
2022-12-20T12:59:25.366Z,12.55
2022-12-20T13:02:16.345Z,12.65
2022-12-20T13:05:02.617Z,9.23
2022-12-20T13:07:32.571Z,13.88
2022-12-20T13:10:00.782Z,9.43
2022-12-20T13:12:37.611Z,15.15
2022-12-20T13:15:04.765Z,12.15
2022-12-20T13:17:31.988Z,12.38
2022-12-20T13:19:59.248Z,14.15
2022-12-20T13:22:27.090Z,7.38
2022-12-20T13:24:57.309Z,7.75
2022-12-20T13:27:27.974Z,8.55
2022-12-20T13:30:10.478Z,12.18
2022-12-20T13:32:50.025Z,19.23
2022-12-20T13:35:26.212Z,5.78
2022-12-20T13:37:55.438Z,11.75
2022-12-20T13:40:37.834Z,13.40
2022-12-20T13:43:11.404Z,16.17
2022-12-20T13:45:40.050Z,22.92
2022-12-20T13:48:11.734Z,13.98
2022-12-20T13:50:40.737Z,13.23
2022-12-20T13:53:16.702Z,13.65
2022-12-20T13:55:45.151Z,16.20
2022-12-20T13:58:19.914Z,24.38
2022-12-20T14:00:48.077Z,10.55
2022-12-20T14:03:20.223Z,12.43
2022-12-20T14:05:47.872Z,15.18
2022-12-20T14:08:18.250Z,16.92
2022-12-20T14:10:45.440Z,20.77
2022-12-20T14:13:23.852Z,13.43
2022-12-20T14:15:51.738Z,19.55
2022-12-20T14:18:24.715Z,17.15
2022-12-20T14:20:57.403Z,17.52
2022-12-20T14:26:02.421Z,23.23
2022-12-20T14:28:40.008Z,12.73
2022-12-20T14:31:08.732Z,10.57
2022-12-20T14:33:37.306Z,17.70
2022-12-20T14:36:16.548Z,23.63
2022-12-20T14:38:53.368Z,19.08
2022-12-20T14:41:36.881Z,18.55
2022-12-20T14:44:07.621Z,14.18
2022-12-20T14:46:35.977Z,20.90
2022-12-20T14:49:17.313Z,19.63
2022-12-20T14:51:44.619Z,17.90
2022-12-20T14:54:47.771Z,23.55
2022-12-20T14:57:11.121Z,16.75
2022-12-20T14:59:38.257Z,16.50
2022-12-20T15:02:28.627Z,15.02
2022-12-20T15:04:56.790Z,18.67
2022-12-20T15:07:30.331Z,25.10
2022-12-20T15:09:58.861Z,15.85
2022-12-20T15:12:26.177Z,24.60
2022-12-20T15:14:53.690Z,12.45
2022-12-20T15:17:20.975Z,28.85
2022-12-20T15:19:48.418Z,18.77
2022-12-20T15:22:17.457Z,26.08
2022-12-20T15:24:44.882Z,25.42
2022-12-20T15:27:14.301Z,19.45
2022-12-20T15:29:41.916Z,20.38
2022-12-20T15:32:16.722Z,17.33
2022-12-20T15:34:44.019Z,21.95
2022-12-20T15:37:18.440Z,12.23
2022-12-20T15:39:46.241Z,23.20
2022-12-20T15:42:17.769Z,18.55
2022-12-20T15:44:45.319Z,21.85
2022-12-20T15:47:16.838Z,22.83
2022-12-20T15:49:49.699Z,17.08
2022-12-20T15:52:20.602Z,21.38
2022-12-20T15:54:47.839Z,21.98
2022-12-20T15:57:15.500Z,15.20
2022-12-20T16:02:31.213Z,18.55
2022-12-20T16:04:59.244Z,19.17
2022-12-20T16:07:26.579Z,18.92
2022-12-20T16:09:54.170Z,18.23
2022-12-20T16:12:24.024Z,24.88
2022-12-20T16:14:51.713Z,20.45
2022-12-20T16:17:18.906Z,18.55
2022-12-20T16:19:46.697Z,19.90
2022-12-20T16:22:17.723Z,26.05
2022-12-20T16:24:45.326Z,19.65
2022-12-20T16:27:12.541Z,22.60
2022-12-20T16:29:41.403Z,31.60
2022-12-20T16:32:15.518Z,28.08
2022-12-20T16:34:42.801Z,28.42
2022-12-20T16:37:11.905Z,22.50
2022-12-20T16:39:39.198Z,14.15
2022-12-20T16:42:16.522Z,26.50
2022-12-20T16:44:45.279Z,19.88
2022-12-20T16:47:14.195Z,32.03
2022-12-20T16:49:51.123Z,21.15
2022-12-20T16:52:19.344Z,28.67
2022-12-20T16:54:46.696Z,17.63
2022-12-20T16:57:13.856Z,47.50
2022-12-20T16:59:41.035Z,130.15
2022-12-20T17:02:22.566Z,145.00
2022-12-20T17:04:49.850Z,66.38
2022-12-20T17:07:17.057Z,30.45
2022-12-20T17:09:44.214Z,24.67
2022-12-20T17:12:21.621Z,23.00
2022-12-20T17:14:49.405Z,20.88
2022-12-20T17:17:17.437Z,28.88
2022-12-20T17:19:44.753Z,25.70
2022-12-20T17:22:24.907Z,20.88
2022-12-20T17:24:52.184Z,19.08
2022-12-20T17:27:19.348Z,27.80
2022-12-20T17:29:46.569Z,32.45
2022-12-20T17:32:24.390Z,29.45
2022-12-20T17:34:53.040Z,28.08
2022-12-20T17:37:21.475Z,21.63
2022-12-20T17:39:48.883Z,18.63
2022-12-20T17:42:16.721Z,19.83
2022-12-20T17:44:44.019Z,14.32
2022-12-20T17:47:11.672Z,29.08
2022-12-20T17:49:39.145Z,22.75
2022-12-20T17:52:06.432Z,29.83
2022-12-20T17:54:39.616Z,20.17
2022-12-20T17:57:07.454Z,31.35
2022-12-20T17:59:34.683Z,20.00
2022-12-20T18:02:02.012Z,22.15
2022-12-20T18:04:29.441Z,22.25
2022-12-20T18:06:57.258Z,28.08
2022-12-20T18:09:24.535Z,20.20
2022-12-20T18:11:51.743Z,25.17
2022-12-20T18:14:18.952Z,27.25
2022-12-20T18:16:46.237Z,25.38
2022-12-20T18:19:17.024Z,17.70
2022-12-20T18:21:45.014Z,18.73
2022-12-20T18:24:13.140Z,16.80
2022-12-20T18:26:40.782Z,21.20
2022-12-20T18:29:07.967Z,15.80
2022-12-20T18:31:35.420Z,27.25
2022-12-20T18:34:02.801Z,15.55
2022-12-20T18:36:31.297Z,17.13
2022-12-20T18:38:59.305Z,18.85
2022-12-20T18:41:28.088Z,31.67
2022-12-20T18:43:58.059Z,17.95
2022-12-20T18:46:25.463Z,24.88
2022-12-20T18:48:53.154Z,30.40
2022-12-20T18:51:25.127Z,35.60
2022-12-20T18:53:54.740Z,24.10
2022-12-20T18:56:24.885Z,31.52
2022-12-20T18:58:52.477Z,22.42
2022-12-20T19:01:21.363Z,36.33
2022-12-20T19:03:50.247Z,37.35
2022-12-20T19:06:17.553Z,30.13
2022-12-20T19:08:44.714Z,44.22
2022-12-20T19:11:16.911Z,30.05
2022-12-20T19:13:44.786Z,19.90
2022-12-20T19:16:12.014Z,30.48
2022-12-20T19:18:39.764Z,21.27
2022-12-20T19:21:07.226Z,20.98
2022-12-20T19:23:34.827Z,23.48
2022-12-20T19:26:06.354Z,15.18
2022-12-20T19:28:34.290Z,23.13
2022-12-20T19:31:09.081Z,22.70
2022-12-20T19:33:39.982Z,25.75
2022-12-20T19:36:10.555Z,28.58
2022-12-20T19:38:37.939Z,22.92
2022-12-20T19:41:05.155Z,23.15
2022-12-20T19:43:32.368Z,21.67
2022-12-20T19:45:59.729Z,27.83
2022-12-20T19:48:26.943Z,32.50
2022-12-20T19:51:03.675Z,23.92
2022-12-20T19:53:30.898Z,24.13
2022-12-20T19:55:58.394Z,40.97
2022-12-20T19:58:25.842Z,21.92
2022-12-20T20:00:53.132Z,22.02
2022-12-20T20:03:21.442Z,28.25
2022-12-20T20:05:49.249Z,25.92
2022-12-20T20:08:16.849Z,25.17
2022-12-20T20:10:44.772Z,21.90
2022-12-20T20:13:12.195Z,29.33
2022-12-20T20:15:39.472Z,19.27
2022-12-20T20:18:07.400Z,31.05
2022-12-20T20:20:34.953Z,26.02
2022-12-20T20:23:02.420Z,25.15
2022-12-20T20:25:33.057Z,31.65
2022-12-20T20:28:00.246Z,28.60
2022-12-20T20:30:27.412Z,25.80
2022-12-20T20:32:54.594Z,22.35
2022-12-20T20:35:21.774Z,22.27
2022-12-20T20:37:48.897Z,22.83
2022-12-20T20:40:16.135Z,33.95
2022-12-20T20:42:43.308Z,18.23
2022-12-20T20:45:10.791Z,25.45
2022-12-20T20:47:37.959Z,25.73
2022-12-20T20:50:05.379Z,26.67
2022-12-20T20:52:32.550Z,23.85
2022-12-20T20:54:59.721Z,16.08
2022-12-20T20:57:26.924Z,34.88
2022-12-20T20:59:54.065Z,20.15
2022-12-20T21:02:23.564Z,18.27
2022-12-20T21:05:39.346Z,28.38
2022-12-20T21:07:40.969Z,17.10
2022-12-20T21:10:08.705Z,35.03
2022-12-20T21:12:36.087Z,21.77
2022-12-20T21:15:32.346Z,34.75
2022-12-20T21:17:50.569Z,27.25
2022-12-20T21:20:23.893Z,29.42
2022-12-20T21:22:53.285Z,29.80
2022-12-20T21:25:20.448Z,24.45
2022-12-20T21:27:48.157Z,34.83
2022-12-20T21:30:15.418Z,24.15
2022-12-20T21:32:42.650Z,17.77
2022-12-20T21:35:10.084Z,26.08
2022-12-20T21:37:37.230Z,27.17
2022-12-20T21:40:04.840Z,20.60
2022-12-20T21:42:32.151Z,32.60
2022-12-20T21:44:59.302Z,20.88
2022-12-20T21:47:26.446Z,19.10
2022-12-20T21:49:53.612Z,26.33
2022-12-20T21:52:20.773Z,13.80
2022-12-20T21:54:47.957Z,19.42
2022-12-20T21:57:15.112Z,25.70
2022-12-20T21:59:42.269Z,30.17
2022-12-20T22:02:10.620Z,18.45
2022-12-20T22:04:39.217Z,25.27
2022-12-20T22:07:06.409Z,20.63
2022-12-20T22:09:33.565Z,28.83
2022-12-20T22:12:00.703Z,23.55
2022-12-20T22:14:28.117Z,21.63
2022-12-20T22:16:55.506Z,19.40
2022-12-20T22:19:22.731Z,16.60
2022-12-20T22:21:57.514Z,21.42
2022-12-20T22:24:25.331Z,20.73
2022-12-20T22:26:52.554Z,24.02
2022-12-20T22:29:20.267Z,23.00
2022-12-20T22:31:47.620Z,23.38
2022-12-20T22:34:15.324Z,24.55
2022-12-20T22:36:43.642Z,18.77
2022-12-20T22:39:10.813Z,20.23
2022-12-20T22:41:37.951Z,19.00
2022-12-20T22:44:05.286Z,16.63
2022-12-20T22:46:32.832Z,26.98
2022-12-20T22:49:01.293Z,19.30
2022-12-20T22:51:30.923Z,23.42
2022-12-20T22:53:59.010Z,19.73
2022-12-20T22:56:26.703Z,14.25
2022-12-20T22:58:53.951Z,16.80
2022-12-20T23:01:21.776Z,25.48
2022-12-20T23:03:49.276Z,27.63
2022-12-20T23:06:17.675Z,20.92
2022-12-20T23:08:44.901Z,26.42
2022-12-20T23:11:41.377Z,28.73
2022-12-20T23:14:31.430Z,24.13
2022-12-20T23:16:59.047Z,27.58
2022-12-20T23:19:26.360Z,16.75
2022-12-20T23:22:12.554Z,23.92
2022-12-20T23:24:39.728Z,22.02
2022-12-20T23:27:06.860Z,18.42
2022-12-20T23:29:34.019Z,22.10
2022-12-20T23:32:01.331Z,37.38
2022-12-20T23:34:28.613Z,16.20
2022-12-20T23:36:55.813Z,16.05
2022-12-20T23:39:23.054Z,21.25
2022-12-20T23:41:50.288Z,21.13
2022-12-20T23:44:17.559Z,20.98
2022-12-20T23:46:44.706Z,22.15
2022-12-20T23:49:11.916Z,32.15
2022-12-20T23:51:39.447Z,26.52
2022-12-20T23:54:06.654Z,22.00
2022-12-20T23:56:33.969Z,22.15
2022-12-20T23:59:02.326Z,15.70
